Alta Vista, Kansas
Current Conditions -  °F | °C
As of 9:58 PM on Wednesday 26 Nov 2014 (Local Time) from KFRI Reporting Station
Few Clouds Few Clouds  
Wind Chill: 27°   Ceiling: Unl
Heat Index: 27°   Visibility: 10mi
Dew Point: 20°   Wind: 3mph
Humidity: 75%   Direction: 360°N
Pressure: 30.44"   Gusts: NA
Location:  38.86°N, 96.49°W
Report Text: KFRI 270358Z AUTO 36003KT 10SM FEW140 M03/M07 A3044 RMK AO2 SLP316 T10281067
Loading
Personal Weather Stations






























Interactive Weather Map New forecast layout! Learn more

10-Day Weather Forecast

Advertisements
Track Severe Weather on mobile